Ocean Invictus — WDI4590 — position and weather

sailwx.info

Track history (hours):
 
Tides and Currents Weather Stations Pressure Air Temp Water Temp Dewpoint Dewpoint Depression Visibility Wind Speed Wind Dir Waves Ship Positions

Ocean Invictus

Owner: Ocean Invictus LLC, Centralia, WA. More information available from US FCC via Universal Licensing System and Coast Guard Vessel Documentation Center.

Last reported at 2017-Nov-11 03:40 UTC. Time now 2017-Nov-18 21:23 UTC.
Position N 45°09' W 124°39'.

Length 29 m; draft 3.5 m.

Type: Fishing. MMSI: 367700050.

Date/timePositionNaut miles runAvg speedWind from/ knotsBaromVisibWave heightAir tempDewpointWater temp
2017-Nov-11 03:40N 45°09' W 124°39'3 6.8
2017-Nov-11 03:11N 45°12' W 124°39'1 6.9
2017-Nov-11 03:00N 45°14' W 124°39'3 6.8
2017-Nov-11 02:30N 45°17' W 124°38'3 6.8
2017-Nov-11 02:00N 45°20' W 124°38'3 6.7
2017-Nov-11 01:31N 45°24' W 124°37'3 6.7
2017-Nov-11 01:01N 45°27' W 124°36'3 6.5
2017-Nov-11 00:30N 45°30' W 124°36'3 6.5
2017-Nov-11 00:00N 45°34' W 124°35'1 1.0
2017-Nov-10 23:30N 45°34' W 124°36'1 2.4
2017-Nov-10 23:01N 45°33' W 124°35'1 2.4
2017-Nov-10 22:31N 45°31' W 124°35'1 2.4
2017-Nov-10 22:01N 45°30' W 124°34'1 2.4
2017-Nov-10 21:31N 45°29' W 124°33'1 2.3
2017-Nov-10 21:00N 45°28' W 124°32'2 3.2
2017-Nov-10 20:30N 45°27' W 124°31'1 2.1
2017-Nov-10 20:01N 45°28' W 124°30'1 1.0
2017-Nov-10 19:31N 45°28' W 124°30'1 2.0
2017-Nov-10 19:00N 45°29' W 124°31'1 2.0
2017-Nov-10 18:30N 45°30' W 124°31'1 2.1
2017-Nov-10 18:00N 45°31' W 124°31'1 2.2
2017-Nov-10 17:30N 45°32' W 124°32'1 2.2
2017-Nov-10 17:00N 45°33' W 124°33'1 2.8
2017-Nov-10 16:30N 45°34' W 124°34'1 3.0
2017-Nov-10 16:01N 45°33' W 124°35'0 0.7
2017-Nov-10 15:31N 45°33' W 124°35'1 2.1
2017-Nov-10 15:00N 45°34' W 124°36'1 2.1
2017-Nov-10 14:30N 45°35' W 124°37'1 2.1
2017-Nov-10 14:01N 45°36' W 124°38'1 2.0
2017-Nov-10 13:31N 45°36' W 124°39'1 2.0
2017-Nov-10 13:01N 45°37' W 124°40'1 2.1
2017-Nov-10 12:30N 45°38' W 124°41'2 4.3
2017-Nov-10 12:01N 45°40' W 124°42'2 3.9
2017-Nov-10 11:30N 45°41' W 124°44'1 1.4
2017-Nov-10 11:01N 45°40' W 124°44'1 2.4
2017-Nov-10 10:31N 45°39' W 124°44'2 2.5
2017-Nov-10 09:42N 45°37' W 124°45'1 3.2
2017-Nov-10 09:31N 45°37' W 124°45'1 1.8
2017-Nov-10 09:01N 45°37' W 124°45'1 2.0
2017-Nov-10 08:31N 45°38' W 124°44'1 2.0
2017-Nov-10 08:00N 45°39' W 124°44'1 1.9
2017-Nov-10 07:30N 45°40' W 124°45'1 2.2
2017-Nov-10 07:00N 45°41' W 124°44'3 5.2
2017-Nov-10 06:30N 45°43' W 124°42'3 5.9
2017-Nov-10 06:01N 45°46' W 124°40'3 6.0
2017-Nov-10 05:30N 45°48' W 124°37'3 5.7
2017-Nov-10 05:00N 45°51' W 124°35'3 5.8
2017-Nov-10 04:30N 45°53' W 124°32'3 5.8
2017-Nov-10 04:00N 45°55' W 124°30'4 6.0
2017-Nov-10 03:16N 45°59' W 124°25'2 6.4
2017-Nov-10 03:00N 45°60' W 124°24'5 6.4
2017-Nov-10 02:11N 46°04' W 124°19'1 6.5
2017-Nov-10 02:01N 46°05' W 124°18'3 6.2
2017-Nov-10 01:31N 46°07' W 124°15'3 6.0
2017-Nov-10 01:00N 46°10' W 124°13'3 6.0
2017-Nov-10 00:30N 46°12' W 124°11'3 6.2
2017-Nov-10 00:01N 46°14' W 124°07'3 5.4
2017-Nov-09 23:31N 46°15' W 124°03'3 5.4
2017-Nov-09 23:01N 46°15' W 123°60'3 6.2
2017-Nov-09 22:30N 46°12' W 123°57'2 5.0
2017-Nov-09 22:01N 46°10' W 123°55'0 0.0
2017-Nov-09 21:30N 46°10' W 123°55'0 0.0
2017-Nov-09 21:01N 46°10' W 123°55'0 0.0
2017-Nov-09 20:31N 46°10' W 123°55'0 0.0
2017-Nov-09 20:00N 46°10' W 123°55'0 0.0
2017-Nov-09 19:30N 46°10' W 123°55'0 0.0
2017-Nov-09 19:01N 46°10' W 123°55'0 0.0
2017-Nov-09 18:31N 46°10' W 123°55'0 0.0
2017-Nov-09 18:01N 46°10' W 123°55'0 0.0
2017-Nov-09 17:31N 46°10' W 123°55'0 0.0
2017-Nov-09 17:01N 46°10' W 123°55'0 0.0
2017-Nov-09 16:31N 46°10' W 123°55'0 0.0
2017-Nov-09 16:01N 46°10' W 123°55'0 0.0
2017-Nov-09 15:30N 46°10' W 123°55'0 0.0
2017-Nov-09 15:01N 46°10' W 123°55'0 0.0
2017-Nov-09 14:31N 46°10' W 123°55'0 0.0
2017-Nov-09 14:00N 46°10' W 123°55'0 0.0
2017-Nov-09 13:31N 46°10' W 123°55'0 0.0
2017-Nov-09 13:01N 46°10' W 123°55'0 0.0
2017-Nov-09 12:23N 46°10' W 123°55'0 0.0
2017-Nov-09 12:01N 46°10' W 123°55'0 0.0
2017-Nov-09 11:21N 46°10' W 123°55'2 5.6
2017-Nov-09 11:01N 46°12' W 123°56'5 9.0
2017-Nov-09 10:31N 46°15' W 124°01'4 7.8
2017-Nov-09 10:01N 46°15' W 124°06'3 6.7
2017-Nov-09 09:31N 46°13' W 124°11'2 4.9
2017-Nov-09 09:00N 46°14' W 124°14'2 4.7
2017-Nov-09 08:31N 46°16' W 124°16'1 2.3
2017-Nov-09 08:01N 46°16' W 124°18'1 2.3
2017-Nov-09 07:31N 46°16' W 124°17'1 2.2
2017-Nov-09 07:01N 46°15' W 124°15'1 2.0
2017-Nov-09 06:31N 46°14' W 124°14'1 0.7
2017-Nov-09 05:45N 46°14' W 124°13'0 0.8
2017-Nov-09 05:30N 46°14' W 124°13'1 1.6
2017-Nov-09 05:01N 46°15' W 124°14'1 2.4
2017-Nov-09 04:31N 46°16' W 124°15'1 2.3
2017-Nov-09 04:01N 46°17' W 124°16'1 2.5
2017-Nov-09 03:30N 46°18' W 124°17'1 2.8
2017-Nov-09 03:01N 46°19' W 124°18'1 2.7
2017-Nov-09 02:30N 46°20' W 124°19'1 2.3
2017-Nov-09 02:00N 46°20' W 124°21'1 2.0
2017-Nov-09 01:30N 46°21' W 124°22'1 2.0
2017-Nov-09 01:01N 46°22' W 124°23'1 1.9
2017-Nov-09 00:27N 46°22' W 124°24'1 1.7
2017-Nov-09 00:00N 46°23' W 124°25'1 1.7
2017-Nov-08 23:30N 46°23' W 124°26'1 1.7
2017-Nov-08 23:01N 46°24' W 124°27'1 1.6
2017-Nov-08 22:30N 46°25' W 124°27'1 1.5
2017-Nov-08 22:01N 46°25' W 124°28'1 1.6
2017-Nov-08 21:31N 46°26' W 124°29'1 2.1
2017-Nov-08 21:01N 46°27' W 124°30'1 2.4
2017-Nov-08 20:30N 46°28' W 124°31'1 2.9
2017-Nov-08 20:00N 46°29' W 124°32'2 4.2
2017-Nov-08 19:31N 46°30' W 124°34'2 3.5
2017-Nov-08 19:01N 46°31' W 124°36'2 3.7
2017-Nov-08 18:31N 46°33' W 124°38'2 3.7
2017-Nov-08 18:00N 46°34' W 124°40'0 1.0
2017-Nov-08 17:31N 46°34' W 124°40'1 1.3
2017-Nov-08 17:01N 46°33' W 124°39'1 2.6
2017-Nov-08 16:31N 46°32' W 124°39'1 2.3
2017-Nov-08 16:00N 46°31' W 124°39'1 1.8
2017-Nov-08 15:31N 46°30' W 124°40'1 1.7
2017-Nov-08 15:00N 46°30' W 124°42'1 1.5
2017-Nov-08 14:09N 46°30' W 124°43'0 1.3
2017-Nov-08 14:00N 46°31' W 124°43'1 1.5
2017-Nov-08 13:18N 46°32' W 124°43'1 1.9
2017-Nov-08 13:00N 46°32' W 124°43'1 1.8
2017-Nov-08 12:31N 46°33' W 124°43'2 3.0
2017-Nov-08 12:00N 46°35' W 124°43'2 4.5
2017-Nov-08 11:31N 46°36' W 124°45'2 3.8
2017-Nov-08 11:01N 46°38' W 124°46'0 0.9
2017-Nov-08 10:31N 46°38' W 124°47'0 0.8
2017-Nov-08 09:55N 46°39' W 124°47'1 2.0
2017-Nov-08 09:30N 46°39' W 124°48'1 2.0
2017-Nov-08 09:01N 46°40' W 124°49'1 2.0
2017-Nov-08 08:30N 46°41' W 124°50'1 2.0
2017-Nov-08 08:01N 46°42' W 124°50'1 2.0
2017-Nov-08 07:30N 46°43' W 124°51'1 2.0
2017-Nov-08 07:01N 46°44' W 124°52'1 2.0
2017-Nov-08 06:30N 46°44' W 124°52'1 1.9
2017-Nov-08 06:00N 46°45' W 124°52'1 2.1
2017-Nov-08 05:27N 46°47' W 124°53'1 2.9
2017-Nov-08 05:00N 46°48' W 124°53'0 0.4
2017-Nov-08 04:15N 46°48' W 124°54'0 1.8
2017-Nov-08 04:00N 46°48' W 124°54'1 1.8
2017-Nov-08 03:30N 46°49' W 124°55'1 1.8
2017-Nov-08 03:00N 46°49' W 124°56'1 1.8
2017-Nov-08 02:25N 46°50' W 124°57'2 3.8
2017-Nov-08 02:00N 46°51' W 124°58'6 4.1
2017-Nov-08 00:27N 46°56' W 125°05'1 1.5
2017-Nov-07 23:42N 46°56' W 125°03'1 2.4
2017-Nov-07 23:27N 46°55' W 125°03'1 2.7
2017-Nov-07 23:00N 46°55' W 125°01'0 0.7
2017-Nov-07 22:31N 46°55' W 125°01'1 1.9
2017-Nov-07 22:00N 46°55' W 125°02'4 3.2
2017-Nov-07 20:52N 46°59' W 125°02'0 0.5
2017-Nov-07 20:26N 46°59' W 125°02'2 1.2
2017-Nov-07 19:08N 46°60' W 124°60'8 0.5
2017-Nov-07 03:58N 46°60' W 124°48'26 7.5
2017-Nov-07 00:28N 46°34' W 124°39'0 1.1
2017-Nov-07 00:01N 46°34' W 124°39'1 1.6
2017-Nov-06 23:30N 46°33' W 124°39'1 2.1
2017-Nov-06 23:01N 46°33' W 124°40'1 2.4
2017-Nov-06 22:31N 46°31' W 124°40'1 2.3
2017-Nov-06 22:00N 46°30' W 124°41'1 2.2
2017-Nov-06 21:31N 46°29' W 124°41'2 3.1
2017-Nov-06 21:00N 46°28' W 124°41'5 7.8
2017-Nov-06 20:23N 46°23' W 124°42'48 2.7
2017-Nov-06 02:30N 45°34' W 124°43'1 1.2
2017-Nov-06 02:00N 45°34' W 124°43'1 2.8
2017-Nov-06 01:30N 45°32' W 124°43'1 2.8
2017-Nov-06 01:00N 45°31' W 124°43'1 2.6
2017-Nov-06 00:30N 45°30' W 124°43'1 2.7
2017-Nov-06 00:00N 45°28' W 124°43'2 4.4
2017-Nov-05 23:30N 45°26' W 124°41'0 0.9
2017-Nov-05 23:00N 45°26' W 124°41'2 3.3
2017-Nov-05 22:30N 45°24' W 124°41'1 2.6
2017-Nov-05 22:00N 45°24' W 124°43'0 0.8
2017-Nov-05 21:30N 45°23' W 124°42'1 2.3
2017-Nov-05 21:00N 45°22' W 124°42'2 2.3
2017-Nov-05 20:14N 45°21' W 124°41'2 2.3
2017-Nov-05 19:21N 45°19' W 124°41'1 2.2
2017-Nov-05 18:57N 45°18' W 124°41'  
Track history (hours):
 
Tides and Currents Weather Stations Pressure Air Temp Water Temp Dewpoint Dewpoint Depression Visibility Wind Speed Wind Dir Waves Ship Positions

Ocean Invictus

Owner: Ocean Invictus LLC, Centralia, WA. More information available from US FCC via Universal Licensing System and Coast Guard Vessel Documentation Center.

Last reported at 2017-Nov-11 03:40 UTC. Time now 2017-Nov-18 21:23 UTC.
Position N 45°09' W 124°39'.

Length 29 m; draft 3.5 m.

Type: Fishing. MMSI: 367700050.

Date/timePositionNaut miles runAvg speedWind from/ knotsBaromVisibWave heightAir tempDewpointWater temp
2017-Nov-11 03:40N 45°09' W 124°39'3 6.8
2017-Nov-11 03:11N 45°12' W 124°39'1 6.9
2017-Nov-11 03:00N 45°14' W 124°39'3 6.8
2017-Nov-11 02:30N 45°17' W 124°38'3 6.8
2017-Nov-11 02:00N 45°20' W 124°38'3 6.7
2017-Nov-11 01:31N 45°24' W 124°37'3 6.7
2017-Nov-11 01:01N 45°27' W 124°36'3 6.5
2017-Nov-11 00:30N 45°30' W 124°36'3 6.5
2017-Nov-11 00:00N 45°34' W 124°35'1 1.0
2017-Nov-10 23:30N 45°34' W 124°36'1 2.4
2017-Nov-10 23:01N 45°33' W 124°35'1 2.4
2017-Nov-10 22:31N 45°31' W 124°35'1 2.4
2017-Nov-10 22:01N 45°30' W 124°34'1 2.4
2017-Nov-10 21:31N 45°29' W 124°33'1 2.3
2017-Nov-10 21:00N 45°28' W 124°32'2 3.2
2017-Nov-10 20:30N 45°27' W 124°31'1 2.1
2017-Nov-10 20:01N 45°28' W 124°30'1 1.0
2017-Nov-10 19:31N 45°28' W 124°30'1 2.0
2017-Nov-10 19:00N 45°29' W 124°31'1 2.0
2017-Nov-10 18:30N 45°30' W 124°31'1 2.1
2017-Nov-10 18:00N 45°31' W 124°31'1 2.2
2017-Nov-10 17:30N 45°32' W 124°32'1 2.2
2017-Nov-10 17:00N 45°33' W 124°33'1 2.8
2017-Nov-10 16:30N 45°34' W 124°34'1 3.0
2017-Nov-10 16:01N 45°33' W 124°35'0 0.7
2017-Nov-10 15:31N 45°33' W 124°35'1 2.1
2017-Nov-10 15:00N 45°34' W 124°36'1 2.1
2017-Nov-10 14:30N 45°35' W 124°37'1 2.1
2017-Nov-10 14:01N 45°36' W 124°38'1 2.0
2017-Nov-10 13:31N 45°36' W 124°39'1 2.0
2017-Nov-10 13:01N 45°37' W 124°40'1 2.1
2017-Nov-10 12:30N 45°38' W 124°41'2 4.3
2017-Nov-10 12:01N 45°40' W 124°42'2 3.9
2017-Nov-10 11:30N 45°41' W 124°44'1 1.4
2017-Nov-10 11:01N 45°40' W 124°44'1 2.4
2017-Nov-10 10:31N 45°39' W 124°44'2 2.5
2017-Nov-10 09:42N 45°37' W 124°45'1 3.2
2017-Nov-10 09:31N 45°37' W 124°45'1 1.8
2017-Nov-10 09:01N 45°37' W 124°45'1 2.0
2017-Nov-10 08:31N 45°38' W 124°44'1 2.0
2017-Nov-10 08:00N 45°39' W 124°44'1 1.9
2017-Nov-10 07:30N 45°40' W 124°45'1 2.2
2017-Nov-10 07:00N 45°41' W 124°44'3 5.2
2017-Nov-10 06:30N 45°43' W 124°42'3 5.9
2017-Nov-10 06:01N 45°46' W 124°40'3 6.0
2017-Nov-10 05:30N 45°48' W 124°37'3 5.7
2017-Nov-10 05:00N 45°51' W 124°35'3 5.8
2017-Nov-10 04:30N 45°53' W 124°32'3 5.8
2017-Nov-10 04:00N 45°55' W 124°30'4 6.0
2017-Nov-10 03:16N 45°59' W 124°25'2 6.4
2017-Nov-10 03:00N 45°60' W 124°24'5 6.4
2017-Nov-10 02:11N 46°04' W 124°19'1 6.5
2017-Nov-10 02:01N 46°05' W 124°18'3 6.2
2017-Nov-10 01:31N 46°07' W 124°15'3 6.0
2017-Nov-10 01:00N 46°10' W 124°13'3 6.0
2017-Nov-10 00:30N 46°12' W 124°11'3 6.2
2017-Nov-10 00:01N 46°14' W 124°07'3 5.4
2017-Nov-09 23:31N 46°15' W 124°03'3 5.4
2017-Nov-09 23:01N 46°15' W 123°60'3 6.2
2017-Nov-09 22:30N 46°12' W 123°57'2 5.0
2017-Nov-09 22:01N 46°10' W 123°55'0 0.0
2017-Nov-09 21:30N 46°10' W 123°55'0 0.0
2017-Nov-09 21:01N 46°10' W 123°55'0 0.0
2017-Nov-09 20:31N 46°10' W 123°55'0 0.0
2017-Nov-09 20:00N 46°10' W 123°55'0 0.0
2017-Nov-09 19:30N 46°10' W 123°55'0 0.0
2017-Nov-09 19:01N 46°10' W 123°55'0 0.0
2017-Nov-09 18:31N 46°10' W 123°55'0 0.0
2017-Nov-09 18:01N 46°10' W 123°55'0 0.0
2017-Nov-09 17:31N 46°10' W 123°55'0 0.0
2017-Nov-09 17:01N 46°10' W 123°55'0 0.0
2017-Nov-09 16:31N 46°10' W 123°55'0 0.0
2017-Nov-09 16:01N 46°10' W 123°55'0 0.0
2017-Nov-09 15:30N 46°10' W 123°55'0 0.0
2017-Nov-09 15:01N 46°10' W 123°55'0 0.0
2017-Nov-09 14:31N 46°10' W 123°55'0 0.0
2017-Nov-09 14:00N 46°10' W 123°55'0 0.0
2017-Nov-09 13:31N 46°10' W 123°55'0 0.0
2017-Nov-09 13:01N 46°10' W 123°55'0 0.0
2017-Nov-09 12:23N 46°10' W 123°55'0 0.0
2017-Nov-09 12:01N 46°10' W 123°55'0 0.0
2017-Nov-09 11:21N 46°10' W 123°55'2 5.6
2017-Nov-09 11:01N 46°12' W 123°56'5 9.0
2017-Nov-09 10:31N 46°15' W 124°01'4 7.8
2017-Nov-09 10:01N 46°15' W 124°06'3 6.7
2017-Nov-09 09:31N 46°13' W 124°11'2 4.9
2017-Nov-09 09:00N 46°14' W 124°14'2 4.7
2017-Nov-09 08:31N 46°16' W 124°16'1 2.3
2017-Nov-09 08:01N 46°16' W 124°18'1 2.3
2017-Nov-09 07:31N 46°16' W 124°17'1 2.2
2017-Nov-09 07:01N 46°15' W 124°15'1 2.0
2017-Nov-09 06:31N 46°14' W 124°14'1 0.7
2017-Nov-09 05:45N 46°14' W 124°13'0 0.8
2017-Nov-09 05:30N 46°14' W 124°13'1 1.6
2017-Nov-09 05:01N 46°15' W 124°14'1 2.4
2017-Nov-09 04:31N 46°16' W 124°15'1 2.3
2017-Nov-09 04:01N 46°17' W 124°16'1 2.5
2017-Nov-09 03:30N 46°18' W 124°17'1 2.8
2017-Nov-09 03:01N 46°19' W 124°18'1 2.7
2017-Nov-09 02:30N 46°20' W 124°19'1 2.3
2017-Nov-09 02:00N 46°20' W 124°21'1 2.0
2017-Nov-09 01:30N 46°21' W 124°22'1 2.0
2017-Nov-09 01:01N 46°22' W 124°23'1 1.9
2017-Nov-09 00:27N 46°22' W 124°24'1 1.7
2017-Nov-09 00:00N 46°23' W 124°25'1 1.7
2017-Nov-08 23:30N 46°23' W 124°26'1 1.7
2017-Nov-08 23:01N 46°24' W 124°27'1 1.6
2017-Nov-08 22:30N 46°25' W 124°27'1 1.5
2017-Nov-08 22:01N 46°25' W 124°28'1 1.6
2017-Nov-08 21:31N 46°26' W 124°29'1 2.1
2017-Nov-08 21:01N 46°27' W 124°30'1 2.4
2017-Nov-08 20:30N 46°28' W 124°31'1 2.9
2017-Nov-08 20:00N 46°29' W 124°32'2 4.2
2017-Nov-08 19:31N 46°30' W 124°34'2 3.5
2017-Nov-08 19:01N 46°31' W 124°36'2 3.7
2017-Nov-08 18:31N 46°33' W 124°38'2 3.7
2017-Nov-08 18:00N 46°34' W 124°40'0 1.0
2017-Nov-08 17:31N 46°34' W 124°40'1 1.3
2017-Nov-08 17:01N 46°33' W 124°39'1 2.6
2017-Nov-08 16:31N 46°32' W 124°39'1 2.3
2017-Nov-08 16:00N 46°31' W 124°39'1 1.8
2017-Nov-08 15:31N 46°30' W 124°40'1 1.7
2017-Nov-08 15:00N 46°30' W 124°42'1 1.5
2017-Nov-08 14:09N 46°30' W 124°43'0 1.3
2017-Nov-08 14:00N 46°31' W 124°43'1 1.5
2017-Nov-08 13:18N 46°32' W 124°43'1 1.9
2017-Nov-08 13:00N 46°32' W 124°43'1 1.8
2017-Nov-08 12:31N 46°33' W 124°43'2 3.0
2017-Nov-08 12:00N 46°35' W 124°43'2 4.5
2017-Nov-08 11:31N 46°36' W 124°45'2 3.8
2017-Nov-08 11:01N 46°38' W 124°46'0 0.9
2017-Nov-08 10:31N 46°38' W 124°47'0 0.8
2017-Nov-08 09:55N 46°39' W 124°47'1 2.0
2017-Nov-08 09:30N 46°39' W 124°48'1 2.0
2017-Nov-08 09:01N 46°40' W 124°49'1 2.0
2017-Nov-08 08:30N 46°41' W 124°50'1 2.0
2017-Nov-08 08:01N 46°42' W 124°50'1 2.0
2017-Nov-08 07:30N 46°43' W 124°51'1 2.0
2017-Nov-08 07:01N 46°44' W 124°52'1 2.0
2017-Nov-08 06:30N 46°44' W 124°52'1 1.9
2017-Nov-08 06:00N 46°45' W 124°52'1 2.1
2017-Nov-08 05:27N 46°47' W 124°53'1 2.9
2017-Nov-08 05:00N 46°48' W 124°53'0 0.4
2017-Nov-08 04:15N 46°48' W 124°54'0 1.8
2017-Nov-08 04:00N 46°48' W 124°54'1 1.8
2017-Nov-08 03:30N 46°49' W 124°55'1 1.8
2017-Nov-08 03:00N 46°49' W 124°56'1 1.8
2017-Nov-08 02:25N 46°50' W 124°57'2 3.8
2017-Nov-08 02:00N 46°51' W 124°58'6 4.1
2017-Nov-08 00:27N 46°56' W 125°05'1 1.5
2017-Nov-07 23:42N 46°56' W 125°03'1 2.4
2017-Nov-07 23:27N 46°55' W 125°03'1 2.7
2017-Nov-07 23:00N 46°55' W 125°01'0 0.7
2017-Nov-07 22:31N 46°55' W 125°01'1 1.9
2017-Nov-07 22:00N 46°55' W 125°02'4 3.2
2017-Nov-07 20:52N 46°59' W 125°02'0 0.5
2017-Nov-07 20:26N 46°59' W 125°02'2 1.2
2017-Nov-07 19:08N 46°60' W 124°60'8 0.5
2017-Nov-07 03:58N 46°60' W 124°48'26 7.5
2017-Nov-07 00:28N 46°34' W 124°39'0 1.1
2017-Nov-07 00:01N 46°34' W 124°39'1 1.6
2017-Nov-06 23:30N 46°33' W 124°39'1 2.1
2017-Nov-06 23:01N 46°33' W 124°40'1 2.4
2017-Nov-06 22:31N 46°31' W 124°40'1 2.3
2017-Nov-06 22:00N 46°30' W 124°41'1 2.2
2017-Nov-06 21:31N 46°29' W 124°41'2 3.1
2017-Nov-06 21:00N 46°28' W 124°41'5 7.8
2017-Nov-06 20:23N 46°23' W 124°42'48 2.7
2017-Nov-06 02:30N 45°34' W 124°43'1 1.2
2017-Nov-06 02:00N 45°34' W 124°43'1 2.8
2017-Nov-06 01:30N 45°32' W 124°43'1 2.8
2017-Nov-06 01:00N 45°31' W 124°43'1 2.6
2017-Nov-06 00:30N 45°30' W 124°43'1 2.7
2017-Nov-06 00:00N 45°28' W 124°43'2 4.4
2017-Nov-05 23:30N 45°26' W 124°41'0 0.9
2017-Nov-05 23:00N 45°26' W 124°41'2 3.3
2017-Nov-05 22:30N 45°24' W 124°41'1 2.6
2017-Nov-05 22:00N 45°24' W 124°43'0 0.8
2017-Nov-05 21:30N 45°23' W 124°42'1 2.3
2017-Nov-05 21:00N 45°22' W 124°42'2 2.3
2017-Nov-05 20:14N 45°21' W 124°41'2 2.3
2017-Nov-05 19:21N 45°19' W 124°41'1 2.2
2017-Nov-05 18:57N 45°18' W 124°41'  

Dump ship's entire track history